Weather observations for the past three days for
La Porte Municipal Airport
Imperial (Metric)
Date Time (cdt) Wind (mph) Vis. (mi.) Weather Sky Cond. Temperature (ºF) Relative Humidity Wind Chill (°F) Heat Index (°F) Pressure Precipitation (in)
Air Dwpt 6 hour altimeter (in) sea level (mb) 1 hr 3 hr 6 hr
Max. Min.
06 03:15 N 8 10.00 Mostly Cloudy BKN065 BKN110 44.6 42.8 93% 41 29.84 0.0
06 02:55 N 9 10.00 Mostly Cloudy BKN065 44.6 42.8 93% 40 29.83 0.0
06 02:35 N 14 10.00 Partly Cloudy SCT065 46.4 42.8 87% 41 29.83 0.0
06 02:15 N 9 10.00 Partly Cloudy FEW065 SCT110 44.6 44.6 100% 40 29.82 0.0
06 01:55 N 3 10.00 Mostly Cloudy FEW065 BKN110 44.6 44.6 100% 29.83 0.0
06 01:35 NW 2 10.00 Partly Cloudy FEW090 SCT110 46.4 46.4 100% 29.83 0.0
06 01:15 NW 3 10.00 Overcast BKN090 OVC110 46.4 46.4 100% 29.83 0.0
06 00:55 W 1 10.00 Overcast OVC090 46.4 46.4 51.8 46.9 100% 29.83 0.0
06 00:15 N 2 10.00 Mostly Cloudy FEW075 SCT090 BKN120 48.2 48.2 100% 29.83 0.0
05 23:55 NW 2 10.00 Overcast BKN075 BKN100 OVC120 48.2 48.2 100% 29.84 0.0
05 23:35 SW 2 10.00 Overcast SCT065 OVC075 48.2 48.2 100% 29.83 0.0
05 23:15 SW 2 10.00 Overcast OVC075 48.2 48.2 100% 29.83 0.0
05 22:55 W 1 10.00 Overcast OVC075 48.2 46.4 94% 29.82 0.0
05 22:35 Calm 10.00 Overcast OVC075 48.2 48.2 100% 29.82 0.0
05 22:15 S 2 10.00 Overcast OVC075 48.2 48.2 100% 29.83 0.0
05 21:55 S 2 10.00 Overcast OVC075 48.2 48.2 100% 29.82 0.0
05 21:35 S 1 10.00 Overcast OVC075 50 48.2 94% 29.82 0.0
05 21:15 SE 2 10.00 Overcast BKN075 BKN085 OVC110 50 42.8 76% 29.81 0.0
05 20:55 E 2 10.00 Overcast OVC085 50 41 71% 29.81 0.0
05 20:35 E 2 10.00 Overcast OVC085 50 44.6 82% 29.81 0.0
05 20:15 SE 2 10.00 Overcast OVC095 50 39.2 67% 29.79 0.0
05 19:55 SE 3 10.00 Overcast OVC095 50 41 71% 29.79 0.0
05 19:35 E 2 10.00 Overcast OVC085 51.8 39.2 62% 29.78 0.0
05 19:15 NE 2 10.00 Overcast OVC085 51.8 37.4 58% 29.78 0.0
05 18:55 NE 2 10.00 Overcast OVC085 51.8 37.4 56.3 51.4 58% 29.78 0.0
05 18:35 E 3 10.00 Overcast OVC085 51.8 35.6 54% 29.78 0.0
05 18:15 E 3 10.00 Mostly Cloudy BKN085 51.8 35.6 54% 29.79 0.0
05 17:55 E 5 10.00 A Few Clouds FEW095 51.8 37.4 58% 29.79 0.0
05 17:35 NE 3 10.00 A Few Clouds FEW095 51.8 32 47% 29.8 0.0
05 17:15 Vrbl 2 10.00 Fair CLR 51.8 33.8 50% 29.8 0.0
05 16:55 N 5 10.00 Fair CLR 51.8 35.6 54% 29.8 0.0
05 16:35 N 5 10.00 Fair CLR 51.8 33.8 50% 29.8 0.0
05 16:15 N 6 10.00 Fair CLR 51.8 33.8 50% 29.8 0.0
05 15:55 NW 6 10.00 Fair CLR 53.6 33.8 47% 29.8 0.0
05 15:35 N 5 10.00 Fair CLR 53.6 35.6 51% 29.8 0.0
05 15:15 Vrbl 6 10.00 Partly Cloudy FEW075 SCT090 53.6 33.8 47% 29.79 0.0
05 14:35 NW 9 10.00 Overcast OVC090 53.6 33.8 47% 29.8 0.0
05 14:15 NW 7 10.00 Overcast OVC080 53.6 32 44% 29.81 0.0
05 13:55 NW 10 10.00 Overcast FEW075 OVC080 53.6 32 44% 29.82 0.0
05 13:35 NW 7 10.00 Mostly Cloudy FEW075 BKN080 55.4 35.6 47% 29.81 0.0
05 13:15 NW 12 G 17 10.00 A Few Clouds FEW075 55.4 35.6 47% 29.8 0.0
05 12:55 W 7 10.00 Partly Cloudy SCT085 55.4 37.4 55.2 43.5 51% 29.8 0.0
05 12:35 NW 8 10.00 Mostly Cloudy BKN085 53.6 37.4 54% 29.8 0.0
05 12:15 NW 8 10.00 Partly Cloudy SCT085 55.4 39.2 55% 29.8 0.0
05 11:55 NW 9 10.00 Mostly Cloudy BKN085 53.6 39.2 58% 29.8 0.0
05 11:35 NW 6 10.00 Mostly Cloudy BKN085 51.8 41 67% 29.8 0.0
05 11:15 NW 8 10.00 Fair CLR 50 42.8 76% 47 29.8 0.0
05 10:55 NW 6 10.00 Fair CLR 48.2 44.6 87% 46 29.8 0.0
05 10:35 N 10 10.00 Fair CLR 46.4 46.4 100% 42 29.8 0.0
05 10:15 N 7 10.00 Light Rain CLR 44.6 44.6 100% 41 29.79 0.0
05 09:55 N 6 10.00 Fair CLR 44.6 44.6 100% 42 29.8 0.0 0.01
05 09:35 N 8 10.00 Light Rain CLR 44.6 44.6 100% 41 29.81 0.0
05 09:15 NW 9 4.00 Light Rain Fog/Mist FEW065 44.6 44.6 100% 40 29.83 0.0
05 08:55 NW 12 9.00 Light Rain BKN065 44.6 44.6 100% 39 29.83 0.0
05 08:35 N 12 8.00 Light Rain FEW050 BKN075 OVC085 44.6 39.2 81% 39 29.81 0.0
05 08:15 N 15 G 25 10.00 Overcast OVC085 48.2 32 54% 43 29.78 0.0
05 07:55 NW 14 10.00 Overcast OVC085 48.2 33.8 58% 43 29.79 0.0
05 07:35 NW 15 G 24 10.00 Mostly Cloudy BKN085 BKN110 50 33.8 54% 45 29.77 0.0
05 07:15 N 17 G 23 10.00 Mostly Cloudy SCT085 BKN110 50 33.8 54% 45 29.74 0.0
05 06:55 NW 18 G 22 10.00 Mostly Cloudy BKN085 BKN110 50 35.6 57.7 47.8 58% 44 29.75 0.0
05 06:35 N 8 10.00 Mostly Cloudy BKN095 BKN120 48.2 37.4 66% 45 29.72 0.0
05 06:15 N 7 10.00 A Few Clouds FEW095 48.2 37.4 66% 46 29.71 0.0
05 05:55 N 14 G 20 10.00 Partly Cloudy FEW055 SCT070 SCT090 50 37.4 62% 45 29.7 0.0
05 05:35 N 13 10.00 Light Rain OVC070 50 37.4 62% 46 29.72 0.0
05 05:15 N 13 G 21 10.00 Overcast OVC070 51.8 37.4 58% 29.72 0.0
05 04:55 NW 12 10.00 Overcast OVC070 51.8 39.2 62% 29.71 0.0
05 04:35 NW 12 G 18 10.00 Overcast FEW041 BKN070 OVC090 53.6 42.8 67% 29.69 0.0
05 04:15 N 12 10.00 Overcast FEW055 BKN070 OVC090 55.4 53.6 94% 29.67 0.0
05 03:55 W 3 10.00 Light Rain FEW030 BKN070 OVC080 55.4 55.4 100% 29.66 0.0
05 03:35 SW 3 10.00 Overcast OVC085 55.4 55.4 100% 29.65 0.0
05 03:15 SW 9 10.00 Overcast OVC085 55.4 55.4 100% 29.65 0.0
05 02:55 SW 7 10.00 Overcast OVC085 55.4 55.4 100% 29.64 0.0
05 02:35 SW 7 10.00 Overcast OVC085 55.4 55.4 100% 29.64 0.0
05 02:15 SW 6 10.00 Overcast OVC070 55.4 55.4 100% 29.63 0.0
05 01:55 SW 7 10.00 Mostly Cloudy BKN070 57.2 57.2 100% 29.62 0.0
05 01:35 SW 7 10.00 Mostly Cloudy BKN070 55.4 55.4 100% 29.61 0.0
05 01:15 SW 6 10.00 Mostly Cloudy BKN070 57.2 57.2 100% 29.59 0.0
05 00:55 SW 7 10.00 Fair CLR 57.2 57.2 73 57.2 100% 29.6 0.0
05 00:35 SW 8 10.00 A Few Clouds FEW065 FEW110 57.2 57.2 100% 29.59 0.0
05 00:15 SW 10 10.00 Mostly Cloudy FEW065 SCT090 BKN110 59 59 100% 29.59 0.0
04 23:55 SW 13 10.00 Overcast SCT065 BKN090 OVC110 59 59 100% 29.58 0.0
04 23:35 SW 13 10.00 Overcast BKN065 OVC090 59 59 100% 29.58 0.0
04 23:15 S 9 10.00 Overcast SCT085 OVC110 59 59 100% 29.57 0.0
04 22:55 SW 12 10.00 Mostly Cloudy FEW060 SCT085 BKN110 59 59 100% 29.56 0.0 0.03
04 22:35 SW 9 10.00 Overcast FEW045 BKN075 OVC085 59 59 100% 29.56 0.0
04 22:15 SW 15 G 26 4.00 Light Rain Fog/Mist FEW043 OVC075 59 59 100% 29.59 0.0
04 21:55 SW 17 10.00 Light Rain FEW060 OVC075 59 59 100% 29.6 0.0 0.1
04 21:35 SW 14 G 39 7.00 Thunderstorm in Vicinity Rain SCT046 SCT060 OVC075 59 59 100% 29.59 0.0
04 21:15 S 10 G 16 3.00 Light Rain Fog/Mist SCT023 BKN050 OVC075 59 59 100% 29.59 0.0
04 20:55 W 5 1.25 Thunderstorm Rain Fog/Mist BKN004 BKN019 OVC050 60.8 60.8 100% 29.59 0.0 0.25
04 20:35 N 15 G 21 4.00 Thunderstorm in Vicinity Rain Fog/Mist SCT036 BKN060 OVC070 62.6 62.6 100% 29.55 0.0
04 20:15 SW 5 10.00 Thunderstorm in Vicinity Rain SCT039 BKN060 OVC110 62.6 62.6 100% 29.55 0.0
04 19:55 SW 5 10.00 Mostly Cloudy FEW060 BKN110 62.6 62.6 100% 29.54 0.0
04 19:35 SW 3 10.00 Thunderstorm in Vicinity SCT060 BKN085 BKN110 64.4 59 83% 29.53 0.0
04 19:15 W 12 G 30 7.00 Thunderstorm Light Rain BKN060 BKN075 OVC100 64.4 57.2 78% 29.53 0.0
04 18:55 SW 16 G 28 8.00 Overcast SCT070 OVC100 73.4 48.2 79.7 72.9 41% 29.51 0.0
04 18:35 SW 18 G 32 8.00 Thunderstorm in Vicinity BKN110 73.4 50 44% 29.52 0.0
04 18:15 SW 21 G 30 10.00 A Few Clouds and Breezy FEW070 FEW100 73.4 50 44% 29.51 0.0
04 17:55 SW 23 G 35 10.00 A Few Clouds and Breezy FEW049 FEW060 FEW120 73.4 53.6 50% 29.52 0.0
04 17:35 SW 24 G 35 10.00 Partly Cloudy and Breezy FEW050 FEW090 SCT120 73.4 53.6 50% 29.52 0.0
04 17:15 SW 20 G 37 10.00 A Few Clouds FEW110 75.2 53.6 47% 78 29.52 0.0
04 16:55 SW 28 G 39 10.00 Partly Cloudy and Windy FEW090 SCT120 75.2 51.8 44% 78 29.52 0.0
04 16:35 SW 26 G 36 10.00 Mostly Cloudy and Windy FEW085 BKN110 75.2 51.8 44% 78 29.53 0.0
04 16:15 SW 22 G 33 10.00 Partly Cloudy and Breezy FEW070 FEW085 SCT120 77 48.2 36% 78 29.54 0.0
04 15:55 SW 23 G 35 10.00 Mostly Cloudy and Breezy SCT075 BKN095 BKN120 77 48.2 36% 78 29.53 0.0
04 15:35 SW 23 G 35 10.00 Mostly Cloudy and Breezy BKN075 BKN095 BKN110 77 48.2 36% 78 29.53 0.0
04 15:15 SW 24 G 31 10.00 Mostly Cloudy and Breezy SCT075 BKN095 BKN110 78.8 50 37% 79 29.53 0.0
04 14:55 SW 18 G 32 10.00 Mostly Cloudy SCT075 BKN095 78.8 50 37% 79 29.54 0.0
04 14:35 SW 16 G 29 10.00 A Few Clouds FEW075 FEW085 78.8 48.2 34% 79 29.54 0.0
04 14:15 SW 16 G 28 10.00 Partly Cloudy SCT075 SCT085 77 48.2 36% 78 29.55 0.0
04 13:55 W 15 G 18 10.00 Partly Cloudy FEW065 SCT080 77 51.8 42% 78 29.56 0.0
04 13:35 SW 15 G 28 10.00 Mostly Cloudy BKN055 BKN080 75.2 51.8 44% 78 29.57 0.0
04 13:15 SW 17 G 26 10.00 Mostly Cloudy SCT055 BKN070 75.2 51.8 44% 78 29.57 0.0
04 12:55 SW 18 G 30 10.00 Partly Cloudy SCT055 75.2 51.8 76.3 50.4 44% 78 29.58 0.0
04 12:35 SW 20 G 29 10.00 A Few Clouds FEW060 75.2 53.6 47% 78 29.59 0.0
04 12:15 SW 16 G 25 10.00 Fair CLR 73.4 51.8 47% 29.59 0.0
04 11:55 SW 16 G 26 10.00 Fair CLR 73.4 51.8 47% 29.6 0.0
04 11:35 SW 14 G 23 10.00 Fair CLR 71.6 51.8 50% 29.61 0.0
04 11:15 SW 14 G 22 10.00 Fair CLR 71.6 51.8 50% 29.62 0.0
04 10:55 SW 15 G 26 10.00 Fair CLR 69.8 50 50% 29.63 0.0
04 10:35 SW 17 G 23 10.00 Fair CLR 69.8 50 50% 29.64 0.0
04 10:15 SW 12 10.00 Fair CLR 68 50 53% 29.64 0.0
04 09:55 SW 13 10.00 Fair CLR 66.2 50 56% 29.65 0.0
04 09:35 SW 12 G 16 10.00 Fair CLR 64.4 50 60% 29.66 0.0
04 09:15 SW 14 10.00 Fair CLR 62.6 50 64% 29.67 0.0
04 08:55 SW 14 10.00 Fair CLR 60.8 50 68% 29.67 0.0
04 08:35 SW 10 G 16 10.00 Fair CLR 59 50 72% 29.68 0.0
04 08:15 SW 7 10.00 Fair CLR 57.2 55.4 94% 29.68 0.0
04 07:55 SW 10 10.00 Fair CLR 55.4 53.6 94% 29.68 0.0
04 07:35 SW 13 G 17 10.00 Fair CLR 53.6 53.6 100% 29.68 0.0
04 07:15 SW 9 10.00 Fair CLR 51.8 51.8 100% 29.68 0.0
04 06:55 SW 8 10.00 Fair CLR 50 50 52.2 46.6 100% 47 29.69 0.0
04 06:35 SW 9 10.00 Fair CLR 48.2 48.2 100% 45 29.69 0.0
04 06:15 SW 7 10.00 Fair CLR 46.4 46.4 100% 43 29.69 0.0
04 05:55 SW 8 10.00 Fair CLR 48.2 48.2 100% 45 29.69 0.0
04 05:35 SW 8 10.00 Fair CLR 46.4 46.4 100% 43 29.69 0.0
04 05:15 SW 8 10.00 Fair CLR 46.4 46.4 100% 43 29.69 0.0
04 04:55 SW 9 10.00 Fair CLR 48.2 48.2 100% 45 29.69 0.0
04 04:15 SW 9 10.00 Fair CLR 48.2 48.2 100% 45 29.69 0.0
04 03:55 SW 8 10.00 Fair CLR 48.2 48.2 100% 45 29.69 0.0
04 03:35 SW 8 10.00 Fair CLR 50 50 100% 47 29.69 0.0
04 03:15 SW 7 10.00 Fair CLR 50 50 100% 48 29.69 0.0
04 02:55 SW 8 10.00 Fair CLR 50 50 100% 47 29.69 0.0
04 02:35 SW 7 10.00 Fair CLR 50 48.2 94% 48 29.7 0.0
04 02:15 S 6 10.00 Fair CLR 50 46.4 88% 48 29.71 0.0
04 01:55 S 7 10.00 Fair CLR 51.8 46.4 82% 29.72 0.0
04 01:35 S 7 10.00 Fair CLR 51.8 44.6 77% 29.72 0.0
04 01:15 S 6 10.00 Fair CLR 51.8 44.6 77% 29.73 0.0
04 00:55 S 6 10.00 Fair CLR 51.8 44.6 60.6 51.4 77% 29.73 0.0
04 00:35 Vrbl 6 10.00 Fair CLR 51.8 44.6 77% 29.74 0.0
04 00:15 Vrbl 6 10.00 Fair CLR 51.8 44.6 77% 29.74 0.0
03 23:55 S 6 10.00 Fair CLR 51.8 44.6 77% 29.75 0.0
03 23:35 S 6 10.00 Fair CLR 51.8 44.6 77% 29.75 0.0
03 23:15 S 7 10.00 Fair CLR 51.8 44.6 77% 29.75 0.0
03 22:55 S 6 10.00 Fair CLR 53.6 44.6 72% 29.76 0.0
03 22:35 Vrbl 5 10.00 Fair CLR 53.6 44.6 72% 29.76 0.0
03 22:15 S 7 10.00 Fair CLR 53.6 44.6 72% 29.77 0.0
03 21:55 S 7 G 17 10.00 Fair CLR 53.6 44.6 72% 29.76 0.0
03 21:35 S 7 10.00 Fair CLR 53.6 44.6 72% 29.76 0.0
03 21:15 S 8 10.00 Fair CLR 55.4 44.6 67% 29.76 0.0
03 20:55 S 9 10.00 Fair CLR 55.4 44.6 67% 29.76 0.0
03 20:35 S 7 10.00 Fair CLR 55.4 42.8 63% 29.76 0.0
03 20:15 S 8 10.00 Fair CLR 57.2 42.8 59% 29.76 0.0
03 19:55 S 10 G 20 10.00 Fair CLR 57.2 42.8 59% 29.76 0.0
03 19:35 S 14 G 22 10.00 Fair CLR 59 42.8 55% 29.76 0.0
03 19:15 S 13 G 24 10.00 Fair CLR 60.8 41 48% 29.76 0.0
03 18:55 S 13 G 21 10.00 Fair CLR 60.8 42.8 61.9 49.3 52% 29.76 0.0
03 18:35 S 10 G 17 10.00 Fair CLR 60.8 41 48% 29.77 0.0
03 18:15 S 15 G 21 10.00 A Few Clouds FEW110 60.8 41 48% 29.77 0.0
03 17:55 SW 14 G 23 10.00 A Few Clouds FEW070 FEW120 60.8 42.8 52% 29.78 0.0
03 17:35 S 15 G 21 10.00 Overcast BKN070 OVC110 60.8 41 48% 29.79 0.0
03 17:15 S 13 G 18 10.00 Mostly Cloudy BKN070 BKN100 59 44.6 59% 29.8 0.0
03 16:55 S 12 G 20 10.00 Partly Cloudy SCT095 SCT120 55.4 46.4 72% 29.81 0.0
03 16:35 S 15 G 24 10.00 Mostly Cloudy BKN095 55.4 46.4 72% 29.81 0.0
03 16:15 S 12 G 20 10.00 Mostly Cloudy BKN095 55.4 46.4 72% 29.82 0.0
03 15:55 S 12 G 24 10.00 Mostly Cloudy BKN095 53.6 46.4 77% 29.82 0.0
03 15:35 S 13 G 20 10.00 Overcast OVC095 51.8 48.2 88% 29.83 0.0
03 15:15 S 12 G 16 10.00 Overcast OVC085 51.8 48.2 88% 29.85 0.0
03 14:55 S 15 G 22 10.00 Mostly Cloudy BKN085 50 48.2 94% 45 29.86 0.0
03 14:35 S 15 G 24 10.00 Mostly Cloudy SCT075 BKN095 51.8 48.2 88% 29.87 0.0
03 14:15 S 16 G 21 10.00 Overcast SCT055 OVC075 51.8 50 94% 29.89 0.0
03 13:35 SW 17 G 23 10.00 Light Rain SCT046 BKN055 BKN070 50 48.2 94% 45 29.93 0.0
03 13:15 SW 21 G 37 6.00 Light Rain Haze and Breezy SCT045 BKN060 BKN085 50 44.6 82% 44 29.94 0.0
03 12:55 SW 20 G 36 10.00 Mostly Cloudy SCT070 BKN095 55.4 39.2 58.6 50 55% 29.93 0.0
03 12:35 SW 18 G 31 10.00 Mostly Cloudy FEW046 SCT070 BKN095 55.4 39.2 55% 29.93 0.0
03 12:15 SW 21 G 32 10.00 Partly Cloudy and Breezy SCT046 57.2 39.2 51% 29.93 0.0
03 11:55 SW 22 G 33 10.00 Fair and Breezy CLR 59 37.4 45% 29.93 0.0
03 11:35 SW 15 G 31 10.00 Fair CLR 57.2 37.4 48% 29.94 0.0
03 11:15 SW 23 G 28 10.00 Fair and Breezy CLR 57.2 37.4 48% 29.94 0.0
03 10:55 SW 18 G 32 10.00 Fair CLR 57.2 37.4 48% 29.95 0.0
03 10:35 SW 20 G 31 10.00 Fair CLR 57.2 37.4 48% 29.95 0.0
03 10:15 SW 17 G 23 10.00 A Few Clouds FEW080 57.2 37.4 48% 29.96 0.0
03 09:55 SW 17 G 28 10.00 Overcast OVC080 55.4 37.4 51% 29.96 0.0
03 09:35 SW 18 G 26 10.00 Mostly Cloudy BKN080 53.6 37.4 54% 29.97 0.0
03 09:15 SW 18 G 29 10.00 Fair CLR 51.8 35.6 54% 29.97 0.0
03 08:55 SW 14 10.00 Fair CLR 51.8 35.6 54% 29.98 0.0
03 08:35 SW 14 G 24 10.00 Fair CLR 50 35.6 58% 45 29.98 0.0
03 08:15 SW 13 10.00 NULL NULL 50 33.8 54% 46 29.99 0.0
03 07:35 SW 9 10.00 NULL NULL 46.4 33.8 62% 42 29.99 0.0
03 07:15 SW 12 10.00 NULL NULL 44.6 33.8 66% 39 29.98 0.0
03 06:55 SW 12 10.00 NULL NULL 42.8 33.8 71% 37 29.98 0.0
03 06:35 SW 8 10.00 NULL NULL 41 33.8 76% 36 29.98 0.0
03 06:15 SW 8 10.00 NULL NULL 39.2 32 75% 34 29.98 0.0
03 05:55 SW 8 10.00 NULL NULL 39.2 32 75% 34 29.98 0.0
03 05:35 SW 7 10.00 NULL NULL 39.2 32 75% 35 29.98 0.0
03 05:15 SW 7 10.00 NULL NULL 39.2 32 75% 35 29.98 0.0
03 04:55 SW 8 10.00 NULL NULL 39.2 32 75% 34 29.98 0.0
03 04:35 SW 7 10.00 NULL NULL 39.2 32 75% 35 29.98 0.0
03 04:15 SW 7 10.00 NULL NULL 39.2 32 75% 35 29.98 0.0
03 03:55 SW 8 10.00 NULL NULL 39.2 33.8 81% 34 29.98 0.0
03 03:35 SW 8 10.00 NULL NULL 39.2 33.8 81% 34 29.99 0.0
Date Time (cdt) Wind (mph) Vis. (mi.) Weather Sky Cond. Air Dwpt Max. Min. Relative Humidity Wind Chill (°F) Heat Index (°F) altimeter (in) sea level (mb) 1 hr 3 hr 6 hr
6 hour
Temperature (ºF) Pressure Precipitation (in)